sensor_id;sensor_type;location;lat;lon;timestamp;P1;durP1;ratioP1;P2;durP2;ratioP2
5456;SDS011;2751;49.802;9.944;2022-12-10T00:00:42;9.73;;;7.03;;
5456;SDS011;2751;49.802;9.944;2022-12-10T00:03:09;9.67;;;7.90;;
5456;SDS011;2751;49.802;9.944;2022-12-10T00:05:37;9.97;;;7.50;;
5456;SDS011;2751;49.802;9.944;2022-12-10T00:08:04;11.17;;;7.63;;
5456;SDS011;2751;49.802;9.944;2022-12-10T00:10:31;13.00;;;8.50;;
5456;SDS011;2751;49.802;9.944;2022-12-10T00:12:58;9.40;;;7.33;;
5456;SDS011;2751;49.802;9.944;2022-12-10T00:15:25;10.77;;;7.63;;
5456;SDS011;2751;49.802;9.944;2022-12-10T00:17:57;9.80;;;8.30;;
5456;SDS011;2751;49.802;9.944;2022-12-10T00:20:24;9.97;;;7.80;;
5456;SDS011;2751;49.802;9.944;2022-12-10T00:22:53;9.60;;;7.97;;
5456;SDS011;2751;49.802;9.944;2022-12-10T00:25:20;9.87;;;7.60;;
5456;SDS011;2751;49.802;9.944;2022-12-10T00:27:47;8.80;;;6.80;;
5456;SDS011;2751;49.802;9.944;2022-12-10T00:30:14;9.13;;;7.20;;
5456;SDS011;2751;49.802;9.944;2022-12-10T00:32:43;7.80;;;6.30;;
5456;SDS011;2751;49.802;9.944;2022-12-10T00:35:10;10.50;;;6.77;;
5456;SDS011;2751;49.802;9.944;2022-12-10T00:37:37;9.37;;;6.90;;
5456;SDS011;2751;49.802;9.944;2022-12-10T00:40:06;12.47;;;7.83;;
5456;SDS011;2751;49.802;9.944;2022-12-10T00:42:35;9.53;;;7.33;;
5456;SDS011;2751;49.802;9.944;2022-12-10T00:45:03;9.00;;;7.17;;
5456;SDS011;2751;49.802;9.944;2022-12-10T00:47:30;8.50;;;6.77;;
5456;SDS011;2751;49.802;9.944;2022-12-10T00:49:59;9.93;;;7.30;;
5456;SDS011;2751;49.802;9.944;2022-12-10T00:52:27;9.10;;;6.93;;
5456;SDS011;2751;49.802;9.944;2022-12-10T00:54:54;10.60;;;7.57;;
5456;SDS011;2751;49.802;9.944;2022-12-10T00:57:23;11.10;;;8.37;;
5456;SDS011;2751;49.802;9.944;2022-12-10T00:59:50;10.50;;;8.00;;
5456;SDS011;2751;49.802;9.944;2022-12-10T01:02:17;12.07;;;7.53;;
5456;SDS011;2751;49.802;9.944;2022-12-10T01:04:44;11.53;;;7.70;;
5456;SDS011;2751;49.802;9.944;2022-12-10T01:07:11;9.93;;;7.90;;
5456;SDS011;2751;49.802;9.944;2022-12-10T01:09:38;11.30;;;8.67;;
5456;SDS011;2751;49.802;9.944;2022-12-10T01:12:05;12.47;;;8.30;;
5456;SDS011;2751;49.802;9.944;2022-12-10T01:14:34;11.90;;;8.27;;
5456;SDS011;2751;49.802;9.944;2022-12-10T01:17:02;11.17;;;8.43;;
5456;SDS011;2751;49.802;9.944;2022-12-10T01:19:31;15.13;;;8.20;;
5456;SDS011;2751;49.802;9.944;2022-12-10T01:21:59;10.43;;;8.40;;
5456;SDS011;2751;49.802;9.944;2022-12-10T01:24:27;12.10;;;8.20;;
5456;SDS011;2751;49.802;9.944;2022-12-10T01:26:55;18.47;;;12.10;;
5456;SDS011;2751;49.802;9.944;2022-12-10T01:29:22;10.90;;;8.93;;
5456;SDS011;2751;49.802;9.944;2022-12-10T01:31:51;12.17;;;8.67;;
5456;SDS011;2751;49.802;9.944;2022-12-10T01:34:19;10.67;;;7.90;;
5456;SDS011;2751;49.802;9.944;2022-12-10T01:36:48;9.63;;;7.53;;
5456;SDS011;2751;49.802;9.944;2022-12-10T01:39:16;11.73;;;7.03;;
5456;SDS011;2751;49.802;9.944;2022-12-10T01:41:48;8.43;;;6.63;;
5456;SDS011;2751;49.802;9.944;2022-12-10T01:47:23;12.80;;;8.40;;
5456;SDS011;2751;49.802;9.944;2022-12-10T01:49:50;9.50;;;7.20;;
5456;SDS011;2751;49.802;9.944;2022-12-10T01:52:17;10.07;;;7.13;;
5456;SDS011;2751;49.802;9.944;2022-12-10T01:54:45;11.97;;;7.90;;
5456;SDS011;2751;49.802;9.944;2022-12-10T01:57:14;10.20;;;7.50;;
5456;SDS011;2751;49.802;9.944;2022-12-10T01:59:43;9.20;;;7.33;;
5456;SDS011;2751;49.802;9.944;2022-12-10T02:02:13;8.50;;;7.43;;
5456;SDS011;2751;49.802;9.944;2022-12-10T02:04:47;9.20;;;7.37;;
5456;SDS011;2751;49.802;9.944;2022-12-10T02:07:24;9.53;;;7.37;;
5456;SDS011;2751;49.802;9.944;2022-12-10T02:09:57;7.07;;;6.37;;
5456;SDS011;2751;49.802;9.944;2022-12-10T02:12:31;9.97;;;7.00;;
5456;SDS011;2751;49.802;9.944;2022-12-10T02:15:03;10.20;;;7.40;;
5456;SDS011;2751;49.802;9.944;2022-12-10T02:17:36;8.97;;;6.53;;
5456;SDS011;2751;49.802;9.944;2022-12-10T02:20:08;9.33;;;7.17;;
5456;SDS011;2751;49.802;9.944;2022-12-10T02:22:41;10.90;;;7.50;;
5456;SDS011;2751;49.802;9.944;2022-12-10T02:25:11;10.10;;;6.97;;
5456;SDS011;2751;49.802;9.944;2022-12-10T02:27:44;8.57;;;6.63;;
5456;SDS011;2751;49.802;9.944;2022-12-10T02:30:18;9.27;;;7.30;;
5456;SDS011;2751;49.802;9.944;2022-12-10T02:32:45;10.77;;;7.00;;
5456;SDS011;2751;49.802;9.944;2022-12-10T02:35:17;9.60;;;6.10;;
5456;SDS011;2751;49.802;9.944;2022-12-10T02:37:48;9.33;;;7.80;;
5456;SDS011;2751;49.802;9.944;2022-12-10T02:40:18;9.80;;;7.47;;
5456;SDS011;2751;49.802;9.944;2022-12-10T02:42:49;12.50;;;8.27;;
5456;SDS011;2751;49.802;9.944;2022-12-10T02:45:18;9.90;;;7.20;;
5456;SDS011;2751;49.802;9.944;2022-12-10T02:47:48;11.63;;;7.43;;
5456;SDS011;2751;49.802;9.944;2022-12-10T02:50:17;12.00;;;7.03;;
5456;SDS011;2751;49.802;9.944;2022-12-10T02:52:47;10.00;;;7.63;;
5456;SDS011;2751;49.802;9.944;2022-12-10T02:55:14;9.63;;;6.80;;
5456;SDS011;2751;49.802;9.944;2022-12-10T02:57:42;11.13;;;7.50;;
5456;SDS011;2751;49.802;9.944;2022-12-10T03:00:20;13.50;;;8.00;;
5456;SDS011;2751;49.802;9.944;2022-12-10T03:02:58;10.73;;;7.10;;
5456;SDS011;2751;49.802;9.944;2022-12-10T03:05:35;11.20;;;7.80;;
5456;SDS011;2751;49.802;9.944;2022-12-10T03:08:09;9.27;;;7.30;;
5456;SDS011;2751;49.802;9.944;2022-12-10T03:10:41;13.60;;;7.63;;
5456;SDS011;2751;49.802;9.944;2022-12-10T03:13:14;10.20;;;7.00;;
5456;SDS011;2751;49.802;9.944;2022-12-10T03:15:45;11.00;;;7.90;;
5456;SDS011;2751;49.802;9.944;2022-12-10T03:18:15;10.93;;;8.13;;
5456;SDS011;2751;49.802;9.944;2022-12-10T03:20:45;8.70;;;6.97;;
5456;SDS011;2751;49.802;9.944;2022-12-10T03:23:14;15.00;;;8.40;;
5456;SDS011;2751;49.802;9.944;2022-12-10T03:25:44;12.77;;;8.23;;
5456;SDS011;2751;49.802;9.944;2022-12-10T03:28:17;13.27;;;8.30;;
5456;SDS011;2751;49.802;9.944;2022-12-10T03:30:47;12.97;;;8.47;;
5456;SDS011;2751;49.802;9.944;2022-12-10T03:33:15;10.80;;;8.47;;
5456;SDS011;2751;49.802;9.944;2022-12-10T03:35:43;11.63;;;7.80;;
5456;SDS011;2751;49.802;9.944;2022-12-10T03:38:10;13.80;;;8.00;;
5456;SDS011;2751;49.802;9.944;2022-12-10T03:40:38;12.40;;;8.37;;
5456;SDS011;2751;49.802;9.944;2022-12-10T03:43:05;11.80;;;7.70;;
5456;SDS011;2751;49.802;9.944;2022-12-10T03:45:32;11.27;;;8.03;;
5456;SDS011;2751;49.802;9.944;2022-12-10T03:48:00;11.57;;;7.40;;
5456;SDS011;2751;49.802;9.944;2022-12-10T03:50:27;11.90;;;8.23;;
5456;SDS011;2751;49.802;9.944;2022-12-10T03:52:54;14.60;;;8.27;;
5456;SDS011;2751;49.802;9.944;2022-12-10T03:55:21;10.23;;;6.83;;
5456;SDS011;2751;49.802;9.944;2022-12-10T03:57:48;12.47;;;7.27;;
5456;SDS011;2751;49.802;9.944;2022-12-10T04:00:15;10.97;;;7.87;;
5456;SDS011;2751;49.802;9.944;2022-12-10T04:02:42;12.40;;;8.60;;
5456;SDS011;2751;49.802;9.944;2022-12-10T04:05:11;16.00;;;9.00;;
5456;SDS011;2751;49.802;9.944;2022-12-10T04:07:37;12.50;;;8.47;;
5456;SDS011;2751;49.802;9.944;2022-12-10T04:10:05;13.60;;;8.80;;
5456;SDS011;2751;49.802;9.944;2022-12-10T04:12:32;13.10;;;8.70;;
5456;SDS011;2751;49.802;9.944;2022-12-10T04:14:59;13.47;;;8.13;;
5456;SDS011;2751;49.802;9.944;2022-12-10T04:17:43;13.77;;;9.30;;
5456;SDS011;2751;49.802;9.944;2022-12-10T04:20:11;14.40;;;9.30;;
5456;SDS011;2751;49.802;9.944;2022-12-10T04:22:52;14.17;;;10.17;;
5456;SDS011;2751;49.802;9.944;2022-12-10T04:25:37;13.20;;;9.50;;
5456;SDS011;2751;49.802;9.944;2022-12-10T04:28:21;13.70;;;9.40;;
5456;SDS011;2751;49.802;9.944;2022-12-10T04:30:48;15.60;;;9.77;;
5456;SDS011;2751;49.802;9.944;2022-12-10T04:33:15;14.00;;;9.20;;
5456;SDS011;2751;49.802;9.944;2022-12-10T04:35:43;13.20;;;9.67;;
5456;SDS011;2751;49.802;9.944;2022-12-10T04:38:10;14.70;;;9.10;;
5456;SDS011;2751;49.802;9.944;2022-12-10T04:40:39;14.93;;;8.90;;
5456;SDS011;2751;49.802;9.944;2022-12-10T04:43:06;14.20;;;9.00;;
5456;SDS011;2751;49.802;9.944;2022-12-10T04:45:33;12.97;;;8.37;;
5456;SDS011;2751;49.802;9.944;2022-12-10T04:48:01;11.90;;;8.43;;
5456;SDS011;2751;49.802;9.944;2022-12-10T04:50:31;13.20;;;9.03;;
5456;SDS011;2751;49.802;9.944;2022-12-10T04:52:59;12.40;;;9.77;;
5456;SDS011;2751;49.802;9.944;2022-12-10T04:55:26;12.93;;;8.23;;
5456;SDS011;2751;49.802;9.944;2022-12-10T04:57:53;12.40;;;8.40;;
5456;SDS011;2751;49.802;9.944;2022-12-10T05:00:20;12.03;;;8.30;;
5456;SDS011;2751;49.802;9.944;2022-12-10T05:02:47;14.63;;;8.87;;
5456;SDS011;2751;49.802;9.944;2022-12-10T05:05:15;12.50;;;9.00;;
5456;SDS011;2751;49.802;9.944;2022-12-10T05:07:42;13.27;;;8.47;;
5456;SDS011;2751;49.802;9.944;2022-12-10T05:10:10;12.47;;;9.07;;
5456;SDS011;2751;49.802;9.944;2022-12-10T05:12:37;11.73;;;8.30;;
5456;SDS011;2751;49.802;9.944;2022-12-10T05:15:05;11.20;;;8.07;;
5456;SDS011;2751;49.802;9.944;2022-12-10T05:17:33;11.67;;;8.20;;
5456;SDS011;2751;49.802;9.944;2022-12-10T05:20:00;12.70;;;8.17;;
5456;SDS011;2751;49.802;9.944;2022-12-10T05:22:26;12.27;;;8.30;;
5456;SDS011;2751;49.802;9.944;2022-12-10T05:25:12;10.67;;;7.23;;
5456;SDS011;2751;49.802;9.944;2022-12-10T05:27:39;12.47;;;7.80;;
5456;SDS011;2751;49.802;9.944;2022-12-10T05:30:06;11.73;;;7.30;;
5456;SDS011;2751;49.802;9.944;2022-12-10T05:32:35;14.00;;;8.30;;
5456;SDS011;2751;49.802;9.944;2022-12-10T05:35:02;10.90;;;7.20;;
5456;SDS011;2751;49.802;9.944;2022-12-10T05:37:30;12.40;;;8.47;;
5456;SDS011;2751;49.802;9.944;2022-12-10T05:39:57;9.90;;;7.70;;
5456;SDS011;2751;49.802;9.944;2022-12-10T05:42:25;12.17;;;7.27;;
5456;SDS011;2751;49.802;9.944;2022-12-10T05:44:52;10.93;;;7.20;;
5456;SDS011;2751;49.802;9.944;2022-12-10T05:47:19;11.40;;;7.07;;
5456;SDS011;2751;49.802;9.944;2022-12-10T05:49:46;11.20;;;7.20;;
5456;SDS011;2751;49.802;9.944;2022-12-10T05:52:15;11.07;;;7.50;;
5456;SDS011;2751;49.802;9.944;2022-12-10T05:54:42;10.10;;;6.80;;
5456;SDS011;2751;49.802;9.944;2022-12-10T05:57:09;9.53;;;6.60;;
5456;SDS011;2751;49.802;9.944;2022-12-10T05:59:37;9.60;;;7.07;;
5456;SDS011;2751;49.802;9.944;2022-12-10T06:02:04;11.13;;;7.30;;
5456;SDS011;2751;49.802;9.944;2022-12-10T06:04:31;14.00;;;8.40;;
5456;SDS011;2751;49.802;9.944;2022-12-10T06:06:58;12.00;;;8.47;;
5456;SDS011;2751;49.802;9.944;2022-12-10T06:09:25;11.73;;;7.37;;
5456;SDS011;2751;49.802;9.944;2022-12-10T06:11:52;11.17;;;8.60;;
5456;SDS011;2751;49.802;9.944;2022-12-10T06:14:19;11.37;;;7.87;;
5456;SDS011;2751;49.802;9.944;2022-12-10T06:16:47;11.33;;;7.97;;
5456;SDS011;2751;49.802;9.944;2022-12-10T06:19:14;11.07;;;8.50;;
5456;SDS011;2751;49.802;9.944;2022-12-10T06:21:41;13.77;;;8.60;;
5456;SDS011;2751;49.802;9.944;2022-12-10T06:24:07;11.77;;;7.93;;
5456;SDS011;2751;49.802;9.944;2022-12-10T06:26:34;13.60;;;8.47;;
5456;SDS011;2751;49.802;9.944;2022-12-10T06:29:01;10.30;;;7.90;;
5456;SDS011;2751;49.802;9.944;2022-12-10T06:31:29;13.80;;;8.47;;
5456;SDS011;2751;49.802;9.944;2022-12-10T06:33:58;12.97;;;8.70;;
5456;SDS011;2751;49.802;9.944;2022-12-10T06:36:27;13.40;;;8.60;;
5456;SDS011;2751;49.802;9.944;2022-12-10T06:38:54;12.80;;;9.27;;
5456;SDS011;2751;49.802;9.944;2022-12-10T06:41:20;13.67;;;8.60;;
5456;SDS011;2751;49.802;9.944;2022-12-10T06:43:48;12.90;;;9.10;;
5456;SDS011;2751;49.802;9.944;2022-12-10T06:46:16;11.47;;;7.77;;
5456;SDS011;2751;49.802;9.944;2022-12-10T06:48:44;13.00;;;8.43;;
5456;SDS011;2751;49.802;9.944;2022-12-10T06:51:13;13.17;;;8.93;;
5456;SDS011;2751;49.802;9.944;2022-12-10T06:53:40;13.70;;;9.37;;
5456;SDS011;2751;49.802;9.944;2022-12-10T06:56:09;12.03;;;8.70;;
5456;SDS011;2751;49.802;9.944;2022-12-10T06:58:38;10.90;;;8.07;;
5456;SDS011;2751;49.802;9.944;2022-12-10T07:01:08;11.00;;;7.87;;
5456;SDS011;2751;49.802;9.944;2022-12-10T07:03:36;12.80;;;8.60;;
5456;SDS011;2751;49.802;9.944;2022-12-10T07:06:04;13.77;;;9.20;;
5456;SDS011;2751;49.802;9.944;2022-12-10T07:08:33;12.40;;;8.90;;
5456;SDS011;2751;49.802;9.944;2022-12-10T07:11:03;14.93;;;8.80;;
5456;SDS011;2751;49.802;9.944;2022-12-10T07:13:30;13.50;;;8.80;;
5456;SDS011;2751;49.802;9.944;2022-12-10T07:15:57;13.20;;;8.30;;
5456;SDS011;2751;49.802;9.944;2022-12-10T07:18:24;12.50;;;8.77;;
5456;SDS011;2751;49.802;9.944;2022-12-10T07:20:51;13.10;;;8.60;;
5456;SDS011;2751;49.802;9.944;2022-12-10T07:23:18;15.30;;;9.00;;
5456;SDS011;2751;49.802;9.944;2022-12-10T07:25:47;11.87;;;9.07;;
5456;SDS011;2751;49.802;9.944;2022-12-10T07:28:14;11.40;;;8.40;;
5456;SDS011;2751;49.802;9.944;2022-12-10T07:30:41;15.07;;;8.70;;
5456;SDS011;2751;49.802;9.944;2022-12-10T07:33:07;14.00;;;9.37;;
5456;SDS011;2751;49.802;9.944;2022-12-10T07:35:34;12.20;;;8.70;;
5456;SDS011;2751;49.802;9.944;2022-12-10T07:38:04;13.07;;;8.50;;
5456;SDS011;2751;49.802;9.944;2022-12-10T07:40:31;14.50;;;9.43;;
5456;SDS011;2751;49.802;9.944;2022-12-10T07:42:59;12.37;;;8.60;;
5456;SDS011;2751;49.802;9.944;2022-12-10T07:45:26;11.90;;;8.43;;
5456;SDS011;2751;49.802;9.944;2022-12-10T07:47:53;12.30;;;8.60;;
5456;SDS011;2751;49.802;9.944;2022-12-10T07:50:20;14.53;;;8.47;;
5456;SDS011;2751;49.802;9.944;2022-12-10T07:52:47;10.30;;;8.03;;
5456;SDS011;2751;49.802;9.944;2022-12-10T07:55:14;12.10;;;9.03;;
5456;SDS011;2751;49.802;9.944;2022-12-10T07:57:41;13.90;;;9.70;;
5456;SDS011;2751;49.802;9.944;2022-12-10T08:00:10;13.70;;;9.30;;
5456;SDS011;2751;49.802;9.944;2022-12-10T08:02:38;15.30;;;10.23;;
5456;SDS011;2751;49.802;9.944;2022-12-10T08:05:05;14.30;;;9.30;;
5456;SDS011;2751;49.802;9.944;2022-12-10T08:07:33;13.63;;;8.97;;
5456;SDS011;2751;49.802;9.944;2022-12-10T08:10:00;12.73;;;8.90;;
5456;SDS011;2751;49.802;9.944;2022-12-10T08:12:27;12.10;;;9.10;;
5456;SDS011;2751;49.802;9.944;2022-12-10T08:14:54;14.10;;;9.97;;
5456;SDS011;2751;49.802;9.944;2022-12-10T08:17:22;14.87;;;9.43;;
5456;SDS011;2751;49.802;9.944;2022-12-10T08:19:49;13.30;;;9.10;;
5456;SDS011;2751;49.802;9.944;2022-12-10T08:22:16;14.20;;;9.80;;
5456;SDS011;2751;49.802;9.944;2022-12-10T08:24:44;13.43;;;9.30;;
5456;SDS011;2751;49.802;9.944;2022-12-10T08:27:11;13.10;;;9.20;;
5456;SDS011;2751;49.802;9.944;2022-12-10T08:29:38;12.83;;;9.33;;
5456;SDS011;2751;49.802;9.944;2022-12-10T08:32:05;11.73;;;8.70;;
5456;SDS011;2751;49.802;9.944;2022-12-10T08:34:33;14.37;;;9.73;;
5456;SDS011;2751;49.802;9.944;2022-12-10T08:37:00;15.40;;;9.40;;
5456;SDS011;2751;49.802;9.944;2022-12-10T08:39:27;12.30;;;9.90;;
5456;SDS011;2751;49.802;9.944;2022-12-10T08:41:54;13.87;;;9.30;;
5456;SDS011;2751;49.802;9.944;2022-12-10T08:44:20;12.10;;;9.00;;
5456;SDS011;2751;49.802;9.944;2022-12-10T08:46:47;15.13;;;9.83;;
5456;SDS011;2751;49.802;9.944;2022-12-10T08:49:14;16.00;;;9.43;;
5456;SDS011;2751;49.802;9.944;2022-12-10T08:51:43;13.03;;;8.47;;
5456;SDS011;2751;49.802;9.944;2022-12-10T08:54:10;13.67;;;9.17;;
5456;SDS011;2751;49.802;9.944;2022-12-10T08:56:37;14.13;;;9.37;;
5456;SDS011;2751;49.802;9.944;2022-12-10T08:59:05;16.07;;;9.90;;
5456;SDS011;2751;49.802;9.944;2022-12-10T09:01:32;16.87;;;10.00;;
5456;SDS011;2751;49.802;9.944;2022-12-10T09:03:59;15.90;;;9.93;;
5456;SDS011;2751;49.802;9.944;2022-12-10T09:06:26;14.80;;;10.20;;
5456;SDS011;2751;49.802;9.944;2022-12-10T09:08:55;14.03;;;10.17;;
5456;SDS011;2751;49.802;9.944;2022-12-10T09:11:23;15.77;;;10.97;;
5456;SDS011;2751;49.802;9.944;2022-12-10T09:13:52;12.43;;;8.93;;
5456;SDS011;2751;49.802;9.944;2022-12-10T09:16:19;15.87;;;9.00;;
5456;SDS011;2751;49.802;9.944;2022-12-10T09:18:47;13.80;;;9.90;;
5456;SDS011;2751;49.802;9.944;2022-12-10T09:21:14;13.87;;;9.40;;
5456;SDS011;2751;49.802;9.944;2022-12-10T09:23:43;17.10;;;10.60;;
5456;SDS011;2751;49.802;9.944;2022-12-10T09:26:12;15.13;;;10.50;;
5456;SDS011;2751;49.802;9.944;2022-12-10T09:28:40;14.50;;;9.80;;
5456;SDS011;2751;49.802;9.944;2022-12-10T09:31:08;18.83;;;10.07;;
5456;SDS011;2751;49.802;9.944;2022-12-10T09:33:36;13.33;;;9.27;;
5456;SDS011;2751;49.802;9.944;2022-12-10T09:36:03;17.67;;;10.83;;
5456;SDS011;2751;49.802;9.944;2022-12-10T09:38:32;17.60;;;9.40;;
5456;SDS011;2751;49.802;9.944;2022-12-10T09:41:01;16.20;;;9.87;;
5456;SDS011;2751;49.802;9.944;2022-12-10T09:43:41;14.63;;;9.20;;
5456;SDS011;2751;49.802;9.944;2022-12-10T09:46:16;13.80;;;9.60;;
5456;SDS011;2751;49.802;9.944;2022-12-10T09:48:53;16.23;;;11.03;;
5456;SDS011;2751;49.802;9.944;2022-12-10T09:51:28;17.90;;;11.30;;
5456;SDS011;2751;49.802;9.944;2022-12-10T09:53:57;12.70;;;9.07;;
5456;SDS011;2751;49.802;9.944;2022-12-10T09:56:26;15.50;;;10.73;;
5456;SDS011;2751;49.802;9.944;2022-12-10T09:58:59;16.83;;;10.80;;
5456;SDS011;2751;49.802;9.944;2022-12-10T10:01:30;15.47;;;9.03;;
5456;SDS011;2751;49.802;9.944;2022-12-10T10:03:58;15.33;;;10.03;;
5456;SDS011;2751;49.802;9.944;2022-12-10T10:06:25;13.80;;;9.33;;
5456;SDS011;2751;49.802;9.944;2022-12-10T10:08:54;18.10;;;11.63;;
5456;SDS011;2751;49.802;9.944;2022-12-10T10:11:25;17.50;;;11.10;;
5456;SDS011;2751;49.802;9.944;2022-12-10T10:13:59;13.30;;;10.00;;
5456;SDS011;2751;49.802;9.944;2022-12-10T10:16:32;14.67;;;10.00;;
5456;SDS011;2751;49.802;9.944;2022-12-10T10:19:02;14.23;;;9.27;;
5456;SDS011;2751;49.802;9.944;2022-12-10T10:21:33;13.70;;;9.83;;
5456;SDS011;2751;49.802;9.944;2022-12-10T10:24:02;14.07;;;9.40;;
5456;SDS011;2751;49.802;9.944;2022-12-10T10:26:29;16.33;;;10.57;;
5456;SDS011;2751;49.802;9.944;2022-12-10T10:29:00;14.60;;;10.60;;
5456;SDS011;2751;49.802;9.944;2022-12-10T10:31:30;14.40;;;10.00;;
5456;SDS011;2751;49.802;9.944;2022-12-10T10:33:59;15.50;;;9.77;;
5456;SDS011;2751;49.802;9.944;2022-12-10T10:36:29;14.47;;;10.33;;
5456;SDS011;2751;49.802;9.944;2022-12-10T10:39:06;14.40;;;9.80;;
5456;SDS011;2751;49.802;9.944;2022-12-10T10:41:35;13.40;;;9.10;;
5456;SDS011;2751;49.802;9.944;2022-12-10T10:44:11;12.67;;;9.07;;
5456;SDS011;2751;49.802;9.944;2022-12-10T10:46:40;15.23;;;11.17;;
5456;SDS011;2751;49.802;9.944;2022-12-10T10:49:12;14.70;;;8.83;;
5456;SDS011;2751;49.802;9.944;2022-12-10T10:51:44;11.20;;;8.20;;
5456;SDS011;2751;49.802;9.944;2022-12-10T10:54:11;12.90;;;9.90;;
5456;SDS011;2751;49.802;9.944;2022-12-10T10:56:50;11.40;;;8.90;;
5456;SDS011;2751;49.802;9.944;2022-12-10T10:59:24;12.37;;;9.73;;
5456;SDS011;2751;49.802;9.944;2022-12-10T11:01:59;14.40;;;9.23;;
5456;SDS011;2751;49.802;9.944;2022-12-10T11:04:30;11.17;;;8.70;;
5456;SDS011;2751;49.802;9.944;2022-12-10T11:07:13;14.60;;;8.27;;
5456;SDS011;2751;49.802;9.944;2022-12-10T11:09:46;11.13;;;8.90;;
5456;SDS011;2751;49.802;9.944;2022-12-10T11:12:34;17.53;;;9.53;;
5456;SDS011;2751;49.802;9.944;2022-12-10T11:15:21;11.43;;;8.90;;
5456;SDS011;2751;49.802;9.944;2022-12-10T11:17:56;11.23;;;8.90;;
5456;SDS011;2751;49.802;9.944;2022-12-10T11:20:24;10.63;;;6.90;;
5456;SDS011;2751;49.802;9.944;2022-12-10T11:22:54;12.03;;;9.33;;
5456;SDS011;2751;49.802;9.944;2022-12-10T11:25:25;13.30;;;10.20;;
5456;SDS011;2751;49.802;9.944;2022-12-10T11:28:04;12.70;;;9.30;;
5456;SDS011;2751;49.802;9.944;2022-12-10T11:30:44;13.00;;;10.10;;
5456;SDS011;2751;49.802;9.944;2022-12-10T11:33:20;11.10;;;7.90;;
5456;SDS011;2751;49.802;9.944;2022-12-10T11:35:54;11.20;;;9.30;;
5456;SDS011;2751;49.802;9.944;2022-12-10T11:38:28;10.37;;;7.97;;
5456;SDS011;2751;49.802;9.944;2022-12-10T11:41:01;13.43;;;9.27;;
5456;SDS011;2751;49.802;9.944;2022-12-10T11:43:42;9.87;;;8.03;;
5456;SDS011;2751;49.802;9.944;2022-12-10T11:46:22;12.20;;;8.27;;
5456;SDS011;2751;49.802;9.944;2022-12-10T11:49:01;12.63;;;8.90;;
5456;SDS011;2751;49.802;9.944;2022-12-10T11:51:40;10.03;;;7.50;;
5456;SDS011;2751;49.802;9.944;2022-12-10T11:54:19;12.30;;;9.63;;
5456;SDS011;2751;49.802;9.944;2022-12-10T11:56:57;11.80;;;8.60;;
5456;SDS011;2751;49.802;9.944;2022-12-10T11:59:31;10.70;;;8.60;;
5456;SDS011;2751;49.802;9.944;2022-12-10T12:02:08;10.70;;;7.77;;
5456;SDS011;2751;49.802;9.944;2022-12-10T12:04:53;12.10;;;9.83;;
5456;SDS011;2751;49.802;9.944;2022-12-10T12:07:36;11.37;;;9.10;;
5456;SDS011;2751;49.802;9.944;2022-12-10T12:10:26;12.30;;;10.00;;
5456;SDS011;2751;49.802;9.944;2022-12-10T12:13:14;13.07;;;8.90;;
5456;SDS011;2751;49.802;9.944;2022-12-10T12:15:47;10.67;;;7.77;;
5456;SDS011;2751;49.802;9.944;2022-12-10T12:18:20;10.47;;;7.90;;
5456;SDS011;2751;49.802;9.944;2022-12-10T12:20:53;11.50;;;8.77;;
5456;SDS011;2751;49.802;9.944;2022-12-10T12:23:24;10.10;;;7.60;;
5456;SDS011;2751;49.802;9.944;2022-12-10T12:25:55;14.63;;;9.97;;
5456;SDS011;2751;49.802;9.944;2022-12-10T12:28:26;9.67;;;6.80;;
5456;SDS011;2751;49.802;9.944;2022-12-10T12:30:58;9.70;;;7.63;;
5456;SDS011;2751;49.802;9.944;2022-12-10T12:33:32;9.77;;;7.60;;
5456;SDS011;2751;49.802;9.944;2022-12-10T12:36:07;10.63;;;7.50;;
5456;SDS011;2751;49.802;9.944;2022-12-10T12:38:40;11.10;;;8.77;;
5456;SDS011;2751;49.802;9.944;2022-12-10T12:41:16;9.90;;;6.37;;
5456;SDS011;2751;49.802;9.944;2022-12-10T12:43:50;10.33;;;7.50;;
5456;SDS011;2751;49.802;9.944;2022-12-10T12:46:26;11.60;;;8.97;;
5456;SDS011;2751;49.802;9.944;2022-12-10T12:49:01;8.40;;;7.20;;
5456;SDS011;2751;49.802;9.944;2022-12-10T12:51:36;9.17;;;7.87;;
5456;SDS011;2751;49.802;9.944;2022-12-10T12:54:06;11.60;;;8.67;;
5456;SDS011;2751;49.802;9.944;2022-12-10T12:56:41;9.90;;;7.90;;
5456;SDS011;2751;49.802;9.944;2022-12-10T12:59:24;14.50;;;10.97;;
5456;SDS011;2751;49.802;9.944;2022-12-10T13:02:02;12.40;;;7.93;;
5456;SDS011;2751;49.802;9.944;2022-12-10T13:04:42;13.43;;;8.53;;
5456;SDS011;2751;49.802;9.944;2022-12-10T13:07:11;11.83;;;8.67;;
5456;SDS011;2751;49.802;9.944;2022-12-10T13:10:07;18.77;;;10.60;;
5456;SDS011;2751;49.802;9.944;2022-12-10T13:12:47;13.73;;;9.17;;
5456;SDS011;2751;49.802;9.944;2022-12-10T13:15:18;13.50;;;10.10;;
5456;SDS011;2751;49.802;9.944;2022-12-10T13:18:00;15.17;;;10.10;;
5456;SDS011;2751;49.802;9.944;2022-12-10T13:20:47;13.23;;;9.50;;
5456;SDS011;2751;49.802;9.944;2022-12-10T13:23:32;11.87;;;8.80;;
5456;SDS011;2751;49.802;9.944;2022-12-10T13:26:00;11.53;;;8.90;;
5456;SDS011;2751;49.802;9.944;2022-12-10T13:28:38;11.87;;;8.90;;
5456;SDS011;2751;49.802;9.944;2022-12-10T13:31:22;12.70;;;9.10;;
5456;SDS011;2751;49.802;9.944;2022-12-10T13:34:05;11.87;;;8.83;;
5456;SDS011;2751;49.802;9.944;2022-12-10T13:37:14;12.50;;;9.20;;
5456;SDS011;2751;49.802;9.944;2022-12-10T13:39:50;15.60;;;10.73;;
5456;SDS011;2751;49.802;9.944;2022-12-10T13:42:27;12.77;;;8.97;;
5456;SDS011;2751;49.802;9.944;2022-12-10T13:45:25;15.63;;;9.70;;
5456;SDS011;2751;49.802;9.944;2022-12-10T13:51:05;15.00;;;9.23;;
5456;SDS011;2751;49.802;9.944;2022-12-10T13:53:46;12.90;;;8.90;;
5456;SDS011;2751;49.802;9.944;2022-12-10T13:56:22;11.83;;;8.90;;
5456;SDS011;2751;49.802;9.944;2022-12-10T13:58:56;13.30;;;9.37;;
5456;SDS011;2751;49.802;9.944;2022-12-10T14:01:37;12.37;;;9.70;;
5456;SDS011;2751;49.802;9.944;2022-12-10T14:04:17;11.97;;;8.97;;
5456;SDS011;2751;49.802;9.944;2022-12-10T14:06:58;10.80;;;7.90;;
5456;SDS011;2751;49.802;9.944;2022-12-10T14:09:27;9.30;;;6.47;;
5456;SDS011;2751;49.802;9.944;2022-12-10T14:11:59;11.83;;;8.03;;
5456;SDS011;2751;49.802;9.944;2022-12-10T14:14:30;11.83;;;7.87;;
5456;SDS011;2751;49.802;9.944;2022-12-10T14:17:00;11.80;;;8.10;;
5456;SDS011;2751;49.802;9.944;2022-12-10T14:19:29;10.23;;;7.40;;
5456;SDS011;2751;49.802;9.944;2022-12-10T14:21:56;8.27;;;5.90;;
5456;SDS011;2751;49.802;9.944;2022-12-10T14:24:32;10.37;;;6.60;;
5456;SDS011;2751;49.802;9.944;2022-12-10T14:27:02;11.77;;;8.53;;
5456;SDS011;2751;49.802;9.944;2022-12-10T14:29:37;12.70;;;8.07;;
5456;SDS011;2751;49.802;9.944;2022-12-10T14:32:10;10.17;;;6.10;;
5456;SDS011;2751;49.802;9.944;2022-12-10T14:34:40;8.63;;;6.60;;
5456;SDS011;2751;49.802;9.944;2022-12-10T14:37:08;9.57;;;5.93;;
5456;SDS011;2751;49.802;9.944;2022-12-10T14:39:40;10.37;;;7.33;;
5456;SDS011;2751;49.802;9.944;2022-12-10T14:42:09;9.57;;;6.37;;
5456;SDS011;2751;49.802;9.944;2022-12-10T14:44:40;9.20;;;6.93;;
5456;SDS011;2751;49.802;9.944;2022-12-10T14:47:12;8.50;;;6.50;;
5456;SDS011;2751;49.802;9.944;2022-12-10T14:49:41;9.00;;;7.07;;
5456;SDS011;2751;49.802;9.944;2022-12-10T14:52:11;8.90;;;6.17;;
5456;SDS011;2751;49.802;9.944;2022-12-10T14:54:41;13.13;;;8.83;;
5456;SDS011;2751;49.802;9.944;2022-12-10T14:57:11;11.33;;;8.10;;
5456;SDS011;2751;49.802;9.944;2022-12-10T14:59:44;8.30;;;6.60;;
5456;SDS011;2751;49.802;9.944;2022-12-10T15:02:16;9.87;;;7.50;;
5456;SDS011;2751;49.802;9.944;2022-12-10T15:04:48;11.80;;;7.33;;
5456;SDS011;2751;49.802;9.944;2022-12-10T15:07:19;10.77;;;7.67;;
5456;SDS011;2751;49.802;9.944;2022-12-10T15:09:50;11.50;;;8.03;;
5456;SDS011;2751;49.802;9.944;2022-12-10T15:15:11;11.50;;;7.70;;
5456;SDS011;2751;49.802;9.944;2022-12-10T15:17:42;11.80;;;7.60;;
5456;SDS011;2751;49.802;9.944;2022-12-10T15:20:20;9.60;;;7.77;;
5456;SDS011;2751;49.802;9.944;2022-12-10T15:22:49;11.20;;;8.13;;
5456;SDS011;2751;49.802;9.944;2022-12-10T15:25:25;13.30;;;8.37;;
5456;SDS011;2751;49.802;9.944;2022-12-10T15:27:54;10.70;;;7.17;;
5456;SDS011;2751;49.802;9.944;2022-12-10T15:30:23;11.57;;;8.67;;
5456;SDS011;2751;49.802;9.944;2022-12-10T15:32:57;12.87;;;8.60;;